createdAt,value
2018-08-22T00:00:58.717Z,10.37
2018-08-22T00:03:25.829Z,12.13
2018-08-22T00:05:53.056Z,10.83
2018-08-22T00:08:25.852Z,11.27
2018-08-22T00:10:52.986Z,10.90
2018-08-22T00:13:20.110Z,13.53
2018-08-22T00:15:47.542Z,10.47
2018-08-22T00:18:14.652Z,12.00
2018-08-22T00:20:41.764Z,10.10
2018-08-22T00:23:08.889Z,11.47
2018-08-22T00:25:35.985Z,12.80
2018-08-22T00:28:03.096Z,10.83
2018-08-22T00:30:30.216Z,12.07
2018-08-22T00:32:57.327Z,11.97
2018-08-22T00:35:24.540Z,9.90
2018-08-22T00:37:51.674Z,10.73
2018-08-22T00:40:18.784Z,12.47
2018-08-22T00:42:45.901Z,10.90
2018-08-22T00:45:13.388Z,11.63
2018-08-22T00:47:40.524Z,11.13
2018-08-22T00:50:07.625Z,12.90
2018-08-22T00:52:34.761Z,10.00
2018-08-22T00:55:01.878Z,10.90
2018-08-22T00:57:28.993Z,12.70
2018-08-22T00:59:57.068Z,11.07
2018-08-22T01:02:24.239Z,15.10
2018-08-22T01:04:51.660Z,9.67
2018-08-22T01:07:18.771Z,11.13
2018-08-22T01:09:45.935Z,13.63
2018-08-22T01:12:13.045Z,9.87
2018-08-22T01:14:40.484Z,10.20
2018-08-22T01:17:07.623Z,10.43
2018-08-22T01:19:34.730Z,10.97
2018-08-22T01:22:01.853Z,9.47
2018-08-22T01:24:28.944Z,10.23
2018-08-22T01:26:56.081Z,10.83
2018-08-22T01:29:23.194Z,11.47
2018-08-22T01:31:50.317Z,8.37
2018-08-22T01:34:23.465Z,8.93
2018-08-22T01:36:52.572Z,9.03
2018-08-22T01:39:19.695Z,10.33
2018-08-22T01:41:46.832Z,8.73
2018-08-22T01:44:13.949Z,9.47
2018-08-22T01:53:42.307Z,7.20
2018-08-22T01:56:09.412Z,9.67
2018-08-22T01:58:36.897Z,8.17
2018-08-22T02:01:04.012Z,7.70
2018-08-22T02:03:31.117Z,10.07
2018-08-22T02:05:58.368Z,8.53
2018-08-22T02:08:25.485Z,9.43
2018-08-22T02:10:53.116Z,7.57
2018-08-22T02:13:20.272Z,7.57
2018-08-22T02:15:47.377Z,8.70
2018-08-22T02:18:14.499Z,7.70
2018-08-22T02:20:41.612Z,8.03
2018-08-22T02:23:08.728Z,7.47
2018-08-22T02:25:35.862Z,7.50
2018-08-22T02:28:03.016Z,8.97
2018-08-22T02:30:30.125Z,7.67
2018-08-22T02:32:57.273Z,8.63
2018-08-22T02:35:24.389Z,7.20
2018-08-22T02:37:51.505Z,7.23
2018-08-22T02:40:18.637Z,9.50
2018-08-22T02:42:45.758Z,7.53
2018-08-22T02:45:12.876Z,8.57
2018-08-22T02:47:40.009Z,7.07
2018-08-22T02:50:07.154Z,9.47
2018-08-22T02:52:34.301Z,6.57
2018-08-22T02:55:03.325Z,6.60
2018-08-22T02:57:30.454Z,8.47
2018-08-22T02:59:57.579Z,7.07
2018-08-22T03:02:24.710Z,7.23
2018-08-22T03:04:52.074Z,8.10
2018-08-22T03:07:19.205Z,7.20
2018-08-22T03:09:46.320Z,7.77
2018-08-22T03:12:13.462Z,6.83
2018-08-22T03:14:40.579Z,7.40
2018-08-22T03:17:07.722Z,7.07
2018-08-22T03:19:34.847Z,7.20
2018-08-22T03:22:01.977Z,7.67
2018-08-22T03:24:29.114Z,6.60
2018-08-22T03:26:56.276Z,7.33
2018-08-22T03:29:23.429Z,6.27
2018-08-22T03:31:50.636Z,7.37
2018-08-22T03:34:18.070Z,5.73
2018-08-22T03:36:45.237Z,6.67
2018-08-22T03:39:12.349Z,5.70
2018-08-22T03:41:39.488Z,6.57
2018-08-22T03:44:06.649Z,5.47
2018-08-22T03:46:33.834Z,6.60
2018-08-22T03:49:00.933Z,5.77
2018-08-22T03:51:28.056Z,6.30
2018-08-22T03:53:55.506Z,5.50
2018-08-22T03:56:22.643Z,6.83
2018-08-22T03:58:49.761Z,5.10
2018-08-22T04:01:16.888Z,6.87
2018-08-22T04:03:44.070Z,5.20
2018-08-22T04:06:11.189Z,6.30
2018-08-22T04:08:43.663Z,5.53
2018-08-22T04:11:15.281Z,5.70
2018-08-22T04:13:42.609Z,5.00
2018-08-22T04:16:09.718Z,6.17
2018-08-22T04:18:36.846Z,6.40
2018-08-22T04:21:03.957Z,4.90
2018-08-22T04:23:31.070Z,6.97
2018-08-22T04:25:58.181Z,5.27
2018-08-22T04:28:25.313Z,6.63
2018-08-22T04:30:52.469Z,5.33
2018-08-22T04:33:19.574Z,6.47
2018-08-22T04:35:46.682Z,4.83
2018-08-22T04:38:20.149Z,6.17
2018-08-22T04:40:47.261Z,4.70
2018-08-22T04:43:14.409Z,5.53
2018-08-22T04:45:41.536Z,5.23
2018-08-22T04:49:38.265Z,6.13
2018-08-22T04:52:05.366Z,4.70
2018-08-22T04:54:32.473Z,6.40
2018-08-22T04:56:59.832Z,5.13
2018-08-22T04:59:26.943Z,4.83
2018-08-22T05:01:54.113Z,6.43
2018-08-22T05:04:21.305Z,5.30
2018-08-22T05:06:48.569Z,4.57
2018-08-22T05:09:15.688Z,5.77
2018-08-22T05:11:42.873Z,6.13
2018-08-22T05:14:10.237Z,4.43
2018-08-22T05:16:37.365Z,6.17
2018-08-22T05:19:04.486Z,4.80
2018-08-22T05:21:31.593Z,5.97
2018-08-22T05:23:58.716Z,5.13
2018-08-22T05:26:25.834Z,5.20
2018-08-22T05:28:57.077Z,13.10
2018-08-22T05:31:24.194Z,5.77
2018-08-22T05:33:51.334Z,6.93
2018-08-22T05:36:18.459Z,6.73
2018-08-22T05:38:45.616Z,7.20
2018-08-22T05:41:12.761Z,7.87
2018-08-22T05:43:40.461Z,7.23
2018-08-22T05:46:07.604Z,6.10
2018-08-22T05:48:34.674Z,8.17
2018-08-22T05:51:01.799Z,8.10
2018-08-22T05:53:28.881Z,8.00
2018-08-22T05:55:56.053Z,7.33
2018-08-22T05:58:23.145Z,8.37
2018-08-22T06:00:50.222Z,7.83
2018-08-22T06:03:17.669Z,6.70
2018-08-22T06:05:44.741Z,7.40
2018-08-22T06:08:11.816Z,6.57
2018-08-22T06:10:38.937Z,7.90
2018-08-22T06:13:06.291Z,6.83
2018-08-22T06:15:33.362Z,7.43
2018-08-22T06:18:00.805Z,8.57
2018-08-22T06:20:27.917Z,6.07
2018-08-22T06:22:55.025Z,7.03
2018-08-22T06:25:22.116Z,5.77
2018-08-22T06:27:49.217Z,6.77
2018-08-22T06:30:16.589Z,5.57
2018-08-22T06:32:43.709Z,6.50
2018-08-22T06:35:10.796Z,6.20
2018-08-22T06:37:37.902Z,7.13
2018-08-22T06:40:05.270Z,6.60
2018-08-22T06:42:32.378Z,6.77
2018-08-22T06:44:59.462Z,5.40
2018-08-22T06:47:26.555Z,6.03
2018-08-22T06:49:53.657Z,4.87
2018-08-22T06:52:21.123Z,5.93
2018-08-22T06:54:48.222Z,4.73
2018-08-22T06:57:15.467Z,5.80
2018-08-22T06:59:42.424Z,4.60
2018-08-22T07:02:09.519Z,5.30
2018-08-22T07:04:36.597Z,4.60
2018-08-22T07:07:03.809Z,4.70
2018-08-22T07:09:31.185Z,5.00
2018-08-22T07:11:58.261Z,4.53
2018-08-22T07:14:25.343Z,4.47
2018-08-22T07:16:52.514Z,3.63
2018-08-22T07:19:19.603Z,4.53
2018-08-22T07:21:46.727Z,3.70
2018-08-22T07:24:13.810Z,4.63
2018-08-22T07:26:40.886Z,3.30
2018-08-22T07:29:07.961Z,4.27
2018-08-22T07:31:35.044Z,4.07
2018-08-22T07:34:02.140Z,4.30
2018-08-22T07:36:29.313Z,3.77
2018-08-22T07:38:56.365Z,5.40
2018-08-22T07:41:23.445Z,4.30
2018-08-22T07:43:50.548Z,6.37
2018-08-22T07:46:17.629Z,4.60
2018-08-22T07:48:44.721Z,6.33
2018-08-22T07:51:11.848Z,4.90
2018-08-22T07:53:38.971Z,6.60
2018-08-22T07:56:06.081Z,5.70
2018-08-22T07:58:33.197Z,6.70
2018-08-22T08:01:00.322Z,5.93
2018-08-22T08:03:27.443Z,8.80
2018-08-22T08:05:54.565Z,7.00
2018-08-22T08:08:21.695Z,10.20
2018-08-22T08:10:48.850Z,9.23
2018-08-22T08:13:21.747Z,11.60
2018-08-22T08:15:49.358Z,10.73
2018-08-22T08:18:16.490Z,15.00
2018-08-22T08:20:43.598Z,12.33
2018-08-22T08:23:10.713Z,13.27
2018-08-22T08:25:37.857Z,12.40
2018-08-22T08:28:04.929Z,10.47
2018-08-22T08:30:32.056Z,13.33
2018-08-22T08:32:59.105Z,11.60
2018-08-22T08:35:26.205Z,12.93
2018-08-22T08:37:53.325Z,11.27
2018-08-22T08:40:20.447Z,11.40
2018-08-22T08:42:47.557Z,10.33
2018-08-22T08:45:14.660Z,11.77
2018-08-22T08:47:41.767Z,10.33
2018-08-22T08:50:08.863Z,11.77
2018-08-22T08:52:36.066Z,9.30
2018-08-22T08:55:03.153Z,12.17
2018-08-22T08:57:30.246Z,10.03
2018-08-22T08:59:57.321Z,11.07
2018-08-22T09:02:24.602Z,10.63
2018-08-22T09:04:51.674Z,10.80
2018-08-22T09:07:18.746Z,10.07
2018-08-22T09:09:45.833Z,12.07
2018-08-22T09:12:12.921Z,10.60
2018-08-22T09:14:40.018Z,14.20
2018-08-22T09:17:07.122Z,12.27
2018-08-22T09:19:34.473Z,14.23
2018-08-22T09:22:01.749Z,12.97
2018-08-22T09:24:28.841Z,14.77
2018-08-22T09:26:55.964Z,12.83
2018-08-22T09:29:23.645Z,10.77
2018-08-22T09:31:50.740Z,11.67
2018-08-22T09:34:17.844Z,15.57
2018-08-22T09:36:44.926Z,11.43
2018-08-22T09:39:12.851Z,13.83
2018-08-22T09:41:40.441Z,11.87
2018-08-22T09:44:07.969Z,12.50
2018-08-22T09:46:35.470Z,9.87
2018-08-22T09:49:02.736Z,11.60
2018-08-22T09:51:29.810Z,9.37
2018-08-22T09:53:56.909Z,10.27
2018-08-22T09:56:26.070Z,8.20
2018-08-22T09:58:53.276Z,10.60
2018-08-22T10:01:26.114Z,9.43
2018-08-22T10:03:56.773Z,12.40
2018-08-22T10:06:31.239Z,10.40
2018-08-22T10:09:00.337Z,12.37
2018-08-22T10:11:27.590Z,8.77
2018-08-22T10:13:55.553Z,9.67
2018-08-22T10:16:23.010Z,9.57
2018-08-22T10:18:50.720Z,9.13
2018-08-22T10:21:17.862Z,9.63
2018-08-22T10:23:45.003Z,11.23
2018-08-22T10:26:12.216Z,11.90
2018-08-22T10:28:39.602Z,9.10
2018-08-22T10:31:06.730Z,9.40
2018-08-22T10:33:33.849Z,9.23
2018-08-22T10:36:01.000Z,10.03
2018-08-22T10:38:28.101Z,9.00
2018-08-22T10:40:55.502Z,8.90
2018-08-22T10:43:22.634Z,9.83
2018-08-22T10:45:50.429Z,9.10
2018-08-22T10:48:17.513Z,10.30
2018-08-22T10:50:44.782Z,11.33
2018-08-22T10:53:11.854Z,15.00
2018-08-22T10:55:38.934Z,14.47
2018-08-22T10:58:06.042Z,15.63
2018-08-22T11:00:33.438Z,15.73
2018-08-22T11:03:00.541Z,12.97
2018-08-22T11:05:27.654Z,11.97
2018-08-22T11:07:54.950Z,10.63
2018-08-22T11:10:22.049Z,12.07
2018-08-22T11:12:55.189Z,9.23
2018-08-22T11:15:22.281Z,8.70
2018-08-22T11:17:49.378Z,8.17
2018-08-22T11:20:16.536Z,9.80
2018-08-22T11:22:55.309Z,7.43
2018-08-22T11:25:34.130Z,9.20
2018-08-22T11:28:12.763Z,7.20
2018-08-22T11:30:51.561Z,6.70
2018-08-22T11:33:30.294Z,6.30
2018-08-22T11:35:56.533Z,6.40
2018-08-22T11:38:23.694Z,5.10
2018-08-22T11:40:51.104Z,5.27
2018-08-22T11:43:18.536Z,4.80
2018-08-22T11:45:45.752Z,5.90
2018-08-22T11:48:12.906Z,4.87
2018-08-22T11:50:40.191Z,5.03
2018-08-22T11:53:07.282Z,4.60
2018-08-22T11:55:34.397Z,4.90
2018-08-22T11:58:01.489Z,7.73
2018-08-22T12:00:28.593Z,6.10
2018-08-22T12:02:55.680Z,9.23
2018-08-22T12:05:22.773Z,7.10
2018-08-22T12:07:49.861Z,6.97
2018-08-22T12:10:16.963Z,7.13
2018-08-22T12:12:44.055Z,6.07
2018-08-22T12:15:11.281Z,6.43
2018-08-22T12:17:38.389Z,6.37
2018-08-22T12:20:05.531Z,6.73
2018-08-22T12:22:32.645Z,5.27
2018-08-22T12:24:59.747Z,5.77
2018-08-22T12:27:26.886Z,7.97
2018-08-22T12:29:53.981Z,6.67
2018-08-22T12:32:27.636Z,5.50
2018-08-22T12:34:54.961Z,6.60
2018-08-22T12:37:22.041Z,6.47
2018-08-22T12:39:49.122Z,8.10
2018-08-22T12:42:16.238Z,6.17
2018-08-22T12:44:43.547Z,4.77
2018-08-22T12:47:12.688Z,6.40
2018-08-22T12:49:39.786Z,5.47
2018-08-22T12:52:06.885Z,6.23
2018-08-22T12:54:33.970Z,7.30
2018-08-22T12:57:01.037Z,6.70
2018-08-22T12:59:28.129Z,5.90
2018-08-22T13:01:55.209Z,5.97
2018-08-22T13:04:22.291Z,5.70
2018-08-22T13:06:49.373Z,5.10
2018-08-22T13:09:16.457Z,4.77
2018-08-22T13:11:43.546Z,4.97
2018-08-22T13:14:10.645Z,4.67
2018-08-22T13:16:37.745Z,5.20
2018-08-22T13:19:04.948Z,5.77
2018-08-22T13:21:32.024Z,7.43
2018-08-22T13:23:59.161Z,8.20
2018-08-22T13:26:26.222Z,7.37
2018-08-22T13:28:53.341Z,8.10
2018-08-22T13:31:20.421Z,6.93
2018-08-22T13:33:47.508Z,7.57
2018-08-22T13:36:14.616Z,7.53
2018-08-22T13:38:41.686Z,8.40
2018-08-22T13:41:08.777Z,7.50
2018-08-22T13:43:35.857Z,7.57
2018-08-22T13:46:02.937Z,6.60
2018-08-22T13:48:30.017Z,7.47
2018-08-22T13:50:57.190Z,6.73
2018-08-22T13:53:24.201Z,6.13
2018-08-22T13:55:51.303Z,7.10
2018-08-22T13:58:18.389Z,6.87
2018-08-22T14:00:45.486Z,9.07
2018-08-22T14:03:12.585Z,7.37
2018-08-22T14:05:39.696Z,8.27
2018-08-22T14:08:06.794Z,7.67
2018-08-22T14:10:34.106Z,7.97
2018-08-22T14:13:01.358Z,8.57
2018-08-22T14:15:28.442Z,7.00
2018-08-22T14:17:55.525Z,6.43
2018-08-22T14:20:22.606Z,6.70
2018-08-22T14:22:49.737Z,7.83
2018-08-22T14:25:16.827Z,6.50
2018-08-22T14:27:43.933Z,6.90
2018-08-22T14:30:11.026Z,8.17
2018-08-22T14:32:38.138Z,7.20
2018-08-22T14:35:05.286Z,7.27
2018-08-22T14:37:32.367Z,9.20
2018-08-22T14:39:59.475Z,8.07
2018-08-22T14:42:26.960Z,7.23
2018-08-22T14:44:54.063Z,6.77
2018-08-22T14:47:21.133Z,7.27
2018-08-22T14:49:48.226Z,6.73
2018-08-22T14:52:15.339Z,7.97
2018-08-22T14:54:42.424Z,7.27
2018-08-22T14:57:09.522Z,7.10
2018-08-22T14:59:36.685Z,6.70
2018-08-22T15:02:03.794Z,6.57
2018-08-22T15:04:30.893Z,5.93
2018-08-22T15:06:57.965Z,5.00
2018-08-22T15:09:25.073Z,5.60
2018-08-22T15:11:52.466Z,5.80
2018-08-22T15:14:19.561Z,6.13
2018-08-22T15:16:46.676Z,4.73
2018-08-22T15:19:14.095Z,4.73
2018-08-22T15:21:41.149Z,5.37
2018-08-22T15:24:08.231Z,5.93
2018-08-22T15:26:35.361Z,6.43
2018-08-22T15:29:02.454Z,6.73
2018-08-22T15:31:29.546Z,6.57
2018-08-22T15:33:56.705Z,6.07
2018-08-22T15:36:23.779Z,6.10
2018-08-22T15:38:50.862Z,6.37
2018-08-22T15:41:18.067Z,8.53
2018-08-22T15:43:45.299Z,7.70
2018-08-22T15:46:12.425Z,6.57
2018-08-22T15:48:39.510Z,6.90
2018-08-22T15:51:06.611Z,6.63
2018-08-22T15:53:33.706Z,5.77
2018-08-22T15:56:00.803Z,7.60
2018-08-22T15:58:27.882Z,7.17
2018-08-22T16:00:55.094Z,6.23
2018-08-22T16:03:23.345Z,6.33
2018-08-22T16:05:51.356Z,6.33
2018-08-22T16:08:20.310Z,6.10
2018-08-22T16:10:47.369Z,7.47
2018-08-22T16:13:20.317Z,7.30
2018-08-22T16:15:48.956Z,6.70
2018-08-22T16:18:16.085Z,8.33
2018-08-22T16:20:51.171Z,7.37
2018-08-22T16:23:18.279Z,6.90
2018-08-22T16:25:46.787Z,7.23
2018-08-22T16:28:15.922Z,7.40
2018-08-22T16:30:43.094Z,6.73
2018-08-22T16:33:10.502Z,7.00
2018-08-22T16:35:37.642Z,6.93
2018-08-22T16:38:08.270Z,8.47
2018-08-22T16:40:36.796Z,6.93
2018-08-22T16:43:04.042Z,6.13
2018-08-22T16:45:32.145Z,6.90
2018-08-22T16:47:59.235Z,7.60
2018-08-22T16:50:26.326Z,8.50
2018-08-22T16:52:53.897Z,5.90
2018-08-22T16:55:22.196Z,6.47
2018-08-22T16:57:55.386Z,8.17
2018-08-22T17:00:37.981Z,7.30
2018-08-22T17:03:11.129Z,6.87
2018-08-22T17:05:44.156Z,6.47
2018-08-22T17:08:17.273Z,7.70
2018-08-22T17:11:01.491Z,6.50
2018-08-22T17:13:43.128Z,7.43
2018-08-22T17:16:10.564Z,6.83
2018-08-22T17:18:38.842Z,6.67
2018-08-22T17:21:06.182Z,6.70
2018-08-22T17:23:33.261Z,7.47
2018-08-22T17:26:00.352Z,6.93
2018-08-22T17:28:36.183Z,6.77
2018-08-22T17:31:03.275Z,8.00
2018-08-22T17:33:36.490Z,6.60
2018-08-22T17:36:03.590Z,6.30
2018-08-22T17:38:30.675Z,5.60
2018-08-22T17:40:57.794Z,5.27
2018-08-22T17:43:24.897Z,5.70
2018-08-22T17:45:51.999Z,5.60
2018-08-22T17:48:20.868Z,4.73
2018-08-22T17:50:48.154Z,4.87
2018-08-22T17:53:15.237Z,5.50
2018-08-22T17:55:42.657Z,7.30
2018-08-22T17:58:09.729Z,6.53
2018-08-22T18:00:37.794Z,5.80
2018-08-22T18:03:04.892Z,6.43
2018-08-22T18:05:33.502Z,6.83
2018-08-22T18:08:01.922Z,6.30
2018-08-22T18:10:29.953Z,6.20
2018-08-22T18:13:01.550Z,6.65
2018-08-22T18:15:28.645Z,6.53
2018-08-22T18:17:56.077Z,6.50
2018-08-22T18:20:23.170Z,5.40
2018-08-22T18:22:50.266Z,6.77
2018-08-22T18:25:17.368Z,5.73
2018-08-22T18:27:44.453Z,7.03
2018-08-22T18:30:11.675Z,5.53
2018-08-22T18:32:38.774Z,7.20
2018-08-22T18:35:11.525Z,6.60
2018-08-22T18:37:39.556Z,6.60
2018-08-22T18:40:18.450Z,10.27
2018-08-22T18:42:47.387Z,10.57
2018-08-22T18:45:14.498Z,14.07
2018-08-22T18:47:41.581Z,12.10
2018-08-22T18:50:09.096Z,10.47
2018-08-22T18:52:36.199Z,9.73
2018-08-22T18:55:03.283Z,10.67
2018-08-22T18:57:30.386Z,8.47
2018-08-22T18:59:57.585Z,9.43
2018-08-22T19:02:24.903Z,7.70
2018-08-22T19:04:52.037Z,6.27
2018-08-22T19:07:19.241Z,6.80
2018-08-22T19:09:46.383Z,7.30
2018-08-22T19:12:13.555Z,8.63
2018-08-22T19:14:44.450Z,6.30
2018-08-22T19:17:13.163Z,6.93
2018-08-22T19:19:43.152Z,7.33
2018-08-22T19:22:10.730Z,6.77
2018-08-22T19:24:37.914Z,6.13
2018-08-22T19:27:05.967Z,5.67
2018-08-22T19:29:33.886Z,6.60
2018-08-22T19:32:01.052Z,7.33
2018-08-22T19:34:28.205Z,8.07
2018-08-22T19:36:55.408Z,7.67
2018-08-22T19:39:22.914Z,7.43
2018-08-22T19:41:50.052Z,6.43
2018-08-22T19:44:17.154Z,6.50
2018-08-22T19:46:44.349Z,6.80
2018-08-22T19:49:11.512Z,7.37
2018-08-22T19:53:03.233Z,7.27
2018-08-22T19:55:31.060Z,6.90
2018-08-22T19:57:58.206Z,7.00
2018-08-22T20:00:25.410Z,6.60
2018-08-22T20:02:52.562Z,8.00
2018-08-22T20:05:19.738Z,7.77
2018-08-22T20:07:47.177Z,6.97
2018-08-22T20:10:14.370Z,8.30
2018-08-22T20:12:44.746Z,6.47
2018-08-22T20:15:12.100Z,7.53
2018-08-22T20:17:39.246Z,6.33
2018-08-22T20:20:07.724Z,7.63
2018-08-22T20:22:41.126Z,6.73
2018-08-22T20:25:08.578Z,7.00
2018-08-22T20:27:35.849Z,7.40
2018-08-22T20:30:09.259Z,7.63
2018-08-22T20:32:36.421Z,5.80
2018-08-22T20:35:03.545Z,6.83
2018-08-22T20:37:30.704Z,8.70
2018-08-22T20:40:03.662Z,6.23
2018-08-22T20:42:30.892Z,7.77
2018-08-22T20:46:22.541Z,8.70
2018-08-22T20:48:50.637Z,7.70
2018-08-22T20:51:17.822Z,7.03
2018-08-22T20:53:47.474Z,8.20
2018-08-22T20:56:14.764Z,8.37
2018-08-22T20:58:42.104Z,7.13
2018-08-22T21:01:09.275Z,6.53
2018-08-22T21:03:38.482Z,8.57
2018-08-22T21:06:09.107Z,6.97
2018-08-22T21:08:36.614Z,8.03
2018-08-22T21:11:03.865Z,6.53
2018-08-22T21:13:31.014Z,8.83
2018-08-22T21:15:58.540Z,7.53
2018-08-22T21:18:25.903Z,9.53
2018-08-22T21:20:53.478Z,8.00
2018-08-22T21:23:20.595Z,9.00
2018-08-22T21:25:47.735Z,7.60
2018-08-22T21:28:14.894Z,8.90
2018-08-22T21:30:47.846Z,8.90
2018-08-22T21:33:14.962Z,9.13
2018-08-22T21:35:42.090Z,7.67
2018-08-22T21:38:14.947Z,9.17
2018-08-22T21:40:42.121Z,8.27
2018-08-22T21:43:10.901Z,9.33
2018-08-22T21:45:38.051Z,7.70
2018-08-22T21:48:13.283Z,7.03
2018-08-22T21:50:40.980Z,8.20
2018-08-22T21:53:08.117Z,7.00
2018-08-22T21:55:36.665Z,8.60
2018-08-22T21:58:06.505Z,6.67
2018-08-22T22:00:35.003Z,7.93
2018-08-22T22:03:02.203Z,7.03
2018-08-22T22:05:40.878Z,8.90
2018-08-22T22:08:08.299Z,6.43
2018-08-22T22:10:35.445Z,9.67
2018-08-22T22:13:02.602Z,7.53
2018-08-22T22:15:35.413Z,9.20
2018-08-22T22:18:02.733Z,7.23
2018-08-22T22:20:29.873Z,8.93
2018-08-22T22:22:57.033Z,7.53
2018-08-22T22:25:24.192Z,7.83
2018-08-22T22:27:51.303Z,7.63
2018-08-22T22:30:18.754Z,8.70
2018-08-22T22:32:45.909Z,7.33
2018-08-22T22:35:16.219Z,8.00
2018-08-22T22:37:43.649Z,7.20
2018-08-22T22:40:10.822Z,8.57
2018-08-22T22:42:37.956Z,6.50
2018-08-22T22:45:05.247Z,8.43
2018-08-22T22:47:33.871Z,7.60
2018-08-22T22:50:01.499Z,9.33
2018-08-22T22:52:44.365Z,7.53
2018-08-22T22:55:11.878Z,8.17
2018-08-22T22:57:40.168Z,7.37
2018-08-22T23:00:09.467Z,8.53
2018-08-22T23:02:36.613Z,6.50
2018-08-22T23:05:03.766Z,7.77
2018-08-22T23:07:32.059Z,6.33
2018-08-22T23:10:00.347Z,8.80
2018-08-22T23:12:39.951Z,7.43
2018-08-22T23:15:10.520Z,6.23
2018-08-22T23:17:37.808Z,8.23
2018-08-22T23:20:11.415Z,6.30
2018-08-22T23:22:39.158Z,7.73
2018-08-22T23:25:06.408Z,6.23
2018-08-22T23:27:33.567Z,7.40
2018-08-22T23:30:00.707Z,5.83
2018-08-22T23:32:27.874Z,7.43
2018-08-22T23:34:55.270Z,6.37
2018-08-22T23:37:22.365Z,7.53
2018-08-22T23:39:49.523Z,6.63
2018-08-22T23:42:16.651Z,7.53
2018-08-22T23:44:45.010Z,6.63
2018-08-22T23:47:12.158Z,8.10
2018-08-22T23:49:45.010Z,6.63
2018-08-22T23:52:12.165Z,9.20
2018-08-22T23:54:43.971Z,6.73
2018-08-22T23:57:11.122Z,8.77
2018-08-22T23:59:38.245Z,6.67
